createdAt,value
2017-06-18T00:00:22.495Z,13.49
2017-06-18T00:01:23.109Z,13.47
2017-06-18T00:02:23.724Z,13.41
2017-06-18T00:03:24.370Z,13.46
2017-06-18T00:04:24.986Z,13.44
2017-06-18T00:05:25.601Z,13.46
2017-06-18T00:06:26.216Z,13.42
2017-06-18T00:07:26.863Z,13.44
2017-06-18T00:08:27.478Z,13.49
2017-06-18T00:09:28.091Z,13.47
2017-06-18T00:10:28.757Z,13.44
2017-06-18T00:11:29.373Z,13.44
2017-06-18T00:12:29.988Z,13.49
2017-06-18T00:13:30.603Z,13.49
2017-06-18T00:14:31.217Z,13.39
2017-06-18T00:15:31.916Z,13.41
2017-06-18T00:16:32.531Z,13.39
2017-06-18T00:17:33.145Z,13.30
2017-06-18T00:18:33.758Z,13.35
2017-06-18T00:19:34.373Z,13.38
2017-06-18T00:20:35.069Z,13.37
2017-06-18T00:21:35.684Z,13.23
2017-06-18T00:22:36.299Z,13.28
2017-06-18T00:23:36.916Z,13.30
2017-06-18T00:24:37.531Z,13.33
2017-06-18T00:25:38.195Z,13.25
2017-06-18T00:26:38.811Z,13.33
2017-06-18T00:27:39.425Z,13.35
2017-06-18T00:28:40.043Z,13.37
2017-06-18T00:29:40.659Z,13.31
2017-06-18T00:30:41.359Z,13.33
2017-06-18T00:31:41.976Z,13.27
2017-06-18T00:32:42.594Z,13.33
2017-06-18T00:33:43.210Z,13.38
2017-06-18T00:34:43.825Z,13.30
2017-06-18T00:35:44.525Z,13.31
2017-06-18T00:36:45.141Z,13.35
2017-06-18T00:37:45.758Z,13.37
2017-06-18T00:38:46.408Z,13.28
2017-06-18T00:39:47.026Z,13.25
2017-06-18T00:40:47.692Z,13.19
2017-06-18T00:41:48.345Z,13.20
2017-06-18T00:42:48.959Z,13.31
2017-06-18T00:43:49.575Z,13.13
2017-06-18T00:44:50.193Z,13.22
2017-06-18T00:45:50.891Z,13.03
2017-06-18T00:46:51.509Z,13.11
2017-06-18T00:47:52.125Z,13.15
2017-06-18T00:48:52.742Z,13.08
2017-06-18T00:49:53.392Z,13.01
2017-06-18T00:50:54.060Z,13.08
2017-06-18T00:51:54.677Z,13.16
2017-06-18T00:52:55.293Z,13.08
2017-06-18T00:53:55.908Z,13.04
2017-06-18T00:54:56.527Z,13.12
2017-06-18T00:55:57.194Z,13.13
2017-06-18T00:56:57.810Z,13.08
2017-06-18T00:57:58.425Z,13.09
2017-06-18T00:58:59.076Z,13.11
2017-06-18T00:59:59.691Z,13.13
2017-06-18T01:01:00.357Z,13.05
2017-06-18T01:02:01.007Z,13.08
2017-06-18T01:03:01.624Z,13.08
2017-06-18T01:04:02.241Z,13.09
2017-06-18T01:05:02.858Z,13.05
2017-06-18T01:06:03.556Z,13.09
2017-06-18T01:07:04.172Z,13.08
2017-06-18T01:08:04.787Z,13.12
2017-06-18T01:09:05.404Z,13.04
2017-06-18T01:10:06.020Z,13.08
2017-06-18T01:11:06.688Z,13.11
2017-06-18T01:12:07.338Z,13.08
2017-06-18T01:13:07.958Z,13.09
2017-06-18T01:14:08.573Z,13.09
2017-06-18T01:15:09.222Z,13.09
2017-06-18T01:16:09.886Z,13.09
2017-06-18T01:17:10.504Z,13.05
2017-06-18T01:18:11.121Z,13.01
2017-06-18T01:19:55.946Z,13.12
2017-06-18T01:20:56.599Z,13.08
2017-06-18T01:21:57.266Z,13.05
2017-06-18T01:22:57.882Z,13.05
2017-06-18T01:23:58.497Z,13.03
2017-06-18T01:24:59.113Z,12.95
2017-06-18T01:25:59.731Z,12.93
2017-06-18T01:27:00.397Z,12.86
2017-06-18T01:28:01.023Z,12.94
2017-06-18T01:29:01.630Z,12.90
2017-06-18T01:30:02.247Z,12.82
2017-06-18T01:31:02.868Z,12.82
2017-06-18T01:32:03.532Z,12.78
2017-06-18T01:33:04.153Z,12.83
2017-06-18T01:34:04.765Z,12.72
2017-06-18T01:35:05.405Z,12.79
2017-06-18T01:36:06.042Z,12.79
2017-06-18T01:37:06.693Z,12.70
2017-06-18T01:38:07.310Z,12.79
2017-06-18T01:39:07.927Z,12.72
2017-06-18T01:40:08.611Z,12.79
2017-06-18T01:41:09.234Z,12.85
2017-06-18T01:42:09.916Z,12.80
2017-06-18T01:43:10.517Z,12.78
2017-06-18T01:44:11.133Z,12.86
2017-06-18T01:45:11.749Z,12.73
2017-06-18T01:46:12.372Z,12.68
2017-06-18T01:47:13.063Z,12.68
2017-06-18T01:48:13.666Z,12.70
2017-06-18T01:49:14.311Z,12.73
2017-06-18T01:50:14.939Z,12.78
2017-06-18T01:51:15.543Z,12.79
2017-06-18T01:52:16.211Z,12.78
2017-06-18T01:53:16.826Z,12.75
2017-06-18T01:54:17.443Z,12.82
2017-06-18T01:55:18.061Z,12.73
2017-06-18T01:56:18.709Z,12.75
2017-06-18T01:57:19.327Z,12.72
2017-06-18T01:58:19.940Z,12.75
2017-06-18T01:59:20.556Z,12.72
2017-06-18T02:00:21.170Z,12.72
2017-06-18T02:01:21.790Z,12.65
2017-06-18T02:02:22.485Z,12.65
2017-06-18T02:03:23.100Z,12.70
2017-06-18T02:04:23.712Z,12.57
2017-06-18T02:05:24.327Z,12.57
2017-06-18T02:06:24.968Z,12.68
2017-06-18T02:07:25.569Z,12.72
2017-06-18T02:08:26.183Z,12.58
2017-06-18T02:09:26.824Z,12.54
2017-06-18T02:10:27.426Z,12.50
2017-06-18T02:11:28.047Z,12.64
2017-06-18T02:12:28.684Z,12.61
2017-06-18T02:13:29.309Z,12.67
2017-06-18T02:14:29.911Z,12.68
2017-06-18T02:15:30.531Z,12.76
2017-06-18T02:16:31.146Z,12.61
2017-06-18T02:17:31.806Z,12.65
2017-06-18T02:18:32.419Z,12.60
2017-06-18T02:19:33.034Z,12.54
2017-06-18T02:20:33.646Z,12.50
2017-06-18T02:21:34.259Z,12.58
2017-06-18T02:22:34.873Z,12.60
2017-06-18T02:23:35.488Z,12.60
2017-06-18T02:24:36.104Z,12.58
2017-06-18T02:25:36.720Z,12.47
2017-06-18T02:26:37.333Z,12.43
2017-06-18T02:27:37.997Z,12.43
2017-06-18T02:28:38.611Z,12.32
2017-06-18T02:29:39.225Z,12.29
2017-06-18T02:30:39.840Z,12.39
2017-06-18T02:31:40.456Z,12.32
2017-06-18T02:32:41.122Z,12.29
2017-06-18T02:33:41.737Z,12.25
2017-06-18T02:34:42.350Z,12.35
2017-06-18T02:35:42.965Z,12.29
2017-06-18T02:36:43.577Z,12.35
2017-06-18T02:37:44.243Z,12.36
2017-06-18T02:38:44.858Z,12.42
2017-06-18T02:39:45.474Z,12.32
2017-06-18T02:40:46.086Z,12.36
2017-06-18T02:41:46.733Z,12.37
2017-06-18T02:42:47.380Z,12.37
2017-06-18T02:43:48.002Z,12.36
2017-06-18T02:44:48.613Z,12.39
2017-06-18T02:45:49.227Z,12.32
2017-06-18T02:46:49.841Z,12.29
2017-06-18T02:47:50.504Z,12.27
2017-06-18T02:48:51.123Z,12.32
2017-06-18T02:49:51.739Z,12.31
2017-06-18T02:50:52.392Z,12.27
2017-06-18T02:51:53.005Z,12.24
2017-06-18T02:52:53.669Z,12.28
2017-06-18T02:53:54.281Z,12.25
2017-06-18T02:54:54.897Z,12.21
2017-06-18T02:55:55.511Z,12.29
2017-06-18T02:56:56.126Z,12.27
2017-06-18T02:57:56.790Z,12.21
2017-06-18T02:58:57.405Z,12.24
2017-06-18T02:59:58.025Z,12.25
2017-06-18T03:00:58.637Z,12.22
2017-06-18T03:01:59.255Z,12.17
2017-06-18T03:02:59.921Z,12.17
2017-06-18T03:04:00.532Z,12.24
2017-06-18T03:05:01.147Z,12.21
2017-06-18T03:06:01.761Z,12.28
2017-06-18T03:07:02.383Z,12.20
2017-06-18T03:08:03.044Z,12.24
2017-06-18T03:09:03.667Z,12.22
2017-06-18T03:10:04.284Z,12.24
2017-06-18T03:11:04.905Z,12.18
2017-06-18T03:12:05.517Z,12.17
2017-06-18T03:13:06.183Z,12.25
2017-06-18T03:14:06.801Z,12.21
2017-06-18T03:15:07.449Z,12.22
2017-06-18T03:16:08.098Z,12.31
2017-06-18T03:17:08.714Z,12.21
2017-06-18T03:18:09.380Z,12.28
2017-06-18T03:19:10.022Z,12.22
2017-06-18T03:20:10.654Z,12.20
2017-06-18T03:21:11.255Z,12.21
2017-06-18T03:22:11.870Z,12.24
2017-06-18T03:23:12.570Z,12.22
2017-06-18T03:24:13.184Z,12.21
2017-06-18T03:25:13.828Z,12.17
2017-06-18T03:26:14.456Z,12.09
2017-06-18T03:27:15.091Z,12.15
2017-06-18T03:28:15.738Z,12.15
2017-06-18T03:29:16.353Z,12.20
2017-06-18T03:30:17.006Z,12.17
2017-06-18T03:31:17.619Z,12.22
2017-06-18T03:32:18.236Z,12.25
2017-06-18T03:33:18.904Z,12.20
2017-06-18T03:34:19.547Z,12.20
2017-06-18T03:35:20.180Z,12.25
2017-06-18T03:36:20.812Z,12.28
2017-06-18T03:37:21.411Z,12.22
2017-06-18T03:38:22.111Z,12.27
2017-06-18T03:39:22.712Z,12.25
2017-06-18T03:40:23.328Z,12.21
2017-06-18T03:41:23.970Z,12.20
2017-06-18T03:42:24.573Z,12.22
2017-06-18T03:43:25.265Z,12.24
2017-06-18T03:44:25.898Z,12.24
2017-06-18T03:45:26.498Z,12.17
2017-06-18T03:46:27.115Z,12.25
2017-06-18T03:47:27.731Z,12.29
2017-06-18T03:48:28.438Z,12.24
2017-06-18T03:49:29.055Z,12.32
2017-06-18T03:50:29.670Z,12.27
2017-06-18T03:51:30.290Z,12.22
2017-06-18T03:52:30.906Z,12.25
2017-06-18T03:53:31.577Z,12.21
2017-06-18T03:54:32.189Z,12.25
2017-06-18T03:55:32.804Z,12.29
2017-06-18T03:56:33.421Z,12.29
2017-06-18T03:57:34.039Z,12.27
2017-06-18T03:58:34.707Z,12.29
2017-06-18T03:59:35.321Z,12.27
2017-06-18T04:00:35.939Z,12.28
2017-06-18T04:01:36.554Z,12.32
2017-06-18T04:02:37.198Z,12.25
2017-06-18T04:03:38.130Z,12.24
2017-06-18T04:04:38.734Z,12.27
2017-06-18T04:05:39.357Z,12.29
2017-06-18T04:06:39.971Z,12.28
2017-06-18T04:07:40.588Z,12.29
2017-06-18T04:08:41.253Z,12.28
2017-06-18T04:09:41.871Z,12.27
2017-06-18T04:10:42.488Z,12.27
2017-06-18T04:11:43.105Z,12.24
2017-06-18T04:12:43.721Z,12.28
2017-06-18T04:13:44.386Z,12.29
2017-06-18T04:14:45.005Z,12.31
2017-06-18T04:15:45.649Z,12.31
2017-06-18T04:16:46.252Z,12.27
2017-06-18T04:17:46.867Z,12.32
2017-06-18T04:18:47.534Z,12.25
2017-06-18T04:19:48.151Z,12.27
2017-06-18T04:20:48.773Z,12.28
2017-06-18T04:21:49.384Z,12.28
2017-06-18T04:22:50.001Z,12.27
2017-06-18T04:23:50.697Z,12.31
2017-06-18T04:24:51.306Z,12.39
2017-06-18T04:25:51.921Z,12.31
2017-06-18T04:26:52.539Z,12.35
2017-06-18T04:27:53.155Z,12.39
2017-06-18T04:28:53.825Z,12.37
2017-06-18T04:29:54.444Z,12.40
2017-06-18T04:30:55.060Z,12.43
2017-06-18T04:31:55.676Z,12.37
2017-06-18T04:32:56.292Z,12.46
2017-06-18T04:33:56.958Z,12.47
2017-06-18T04:34:57.577Z,12.37
2017-06-18T04:35:58.197Z,12.39
2017-06-18T04:36:58.812Z,12.35
2017-06-18T04:37:59.429Z,12.28
2017-06-18T04:39:00.094Z,12.35
2017-06-18T04:40:00.712Z,12.39
2017-06-18T04:41:01.330Z,12.31
2017-06-18T04:42:01.945Z,12.28
2017-06-18T04:43:02.564Z,12.39
2017-06-18T04:44:03.229Z,12.28
2017-06-18T04:45:03.846Z,12.25
2017-06-18T04:46:04.491Z,12.25
2017-06-18T04:47:05.101Z,12.28
2017-06-18T04:48:05.711Z,12.21
2017-06-18T04:49:06.385Z,12.22
2017-06-18T04:50:06.998Z,12.20
2017-06-18T04:51:07.619Z,12.18
2017-06-18T04:52:08.236Z,12.24
2017-06-18T04:53:08.859Z,12.24
2017-06-18T04:54:09.524Z,12.18
2017-06-18T04:55:10.140Z,12.29
2017-06-18T04:56:10.756Z,12.27
2017-06-18T04:57:11.374Z,12.21
2017-06-18T04:58:11.992Z,12.28
2017-06-18T04:59:12.613Z,12.36
2017-06-18T05:00:13.228Z,12.29
2017-06-18T05:01:13.843Z,12.32
2017-06-18T05:02:14.492Z,12.35
2017-06-18T05:03:15.108Z,12.32
2017-06-18T05:04:16.024Z,12.35
2017-06-18T05:05:16.642Z,12.31
2017-06-18T05:06:17.258Z,12.32
2017-06-18T05:07:17.903Z,12.29
2017-06-18T05:08:18.503Z,12.36
2017-06-18T05:09:19.171Z,12.29
2017-06-18T05:10:19.813Z,12.28
2017-06-18T05:11:20.418Z,12.31
2017-06-18T05:12:21.036Z,12.37
2017-06-18T05:13:21.654Z,12.37
2017-06-18T05:14:22.319Z,12.37
2017-06-18T05:15:22.935Z,12.40
2017-06-18T05:16:23.586Z,12.32
2017-06-18T05:17:24.236Z,12.29
2017-06-18T05:18:24.853Z,12.28
2017-06-18T05:19:25.522Z,12.29
2017-06-18T05:20:26.137Z,12.27
2017-06-18T05:21:26.755Z,12.24
2017-06-18T05:22:27.376Z,12.22
2017-06-18T05:23:27.990Z,12.25
2017-06-18T05:24:28.711Z,12.21
2017-06-18T05:25:29.329Z,12.22
2017-06-18T05:26:29.951Z,12.22
2017-06-18T05:27:30.607Z,12.25
2017-06-18T05:28:31.221Z,12.22
2017-06-18T05:29:32.139Z,12.15
2017-06-18T05:30:32.766Z,12.29
2017-06-18T05:31:33.380Z,12.31
2017-06-18T05:32:33.999Z,12.39
2017-06-18T05:33:34.657Z,12.46
2017-06-18T05:34:35.319Z,12.53
2017-06-18T05:35:35.935Z,12.49
2017-06-18T05:36:36.550Z,12.57
2017-06-18T05:37:37.200Z,12.54
2017-06-18T05:38:37.842Z,12.58
2017-06-18T05:39:38.497Z,12.50
2017-06-18T05:40:39.113Z,12.67
2017-06-18T05:41:39.734Z,12.73
2017-06-18T05:42:40.351Z,12.65
2017-06-18T05:43:40.972Z,12.70
2017-06-18T05:44:41.635Z,12.82
2017-06-18T05:45:42.253Z,12.75
2017-06-18T05:46:42.903Z,12.83
2017-06-18T05:47:43.530Z,12.78
2017-06-18T05:48:44.134Z,12.87
2017-06-18T05:49:44.828Z,12.95
2017-06-18T05:50:45.480Z,12.94
2017-06-18T05:51:46.098Z,13.04
2017-06-18T05:52:46.714Z,13.04
2017-06-18T05:53:47.368Z,13.03
2017-06-18T05:54:48.034Z,13.13
2017-06-18T05:55:48.652Z,13.13
2017-06-18T05:56:49.275Z,13.08
2017-06-18T05:57:49.890Z,13.19
2017-06-18T05:58:50.506Z,13.19
2017-06-18T05:59:51.178Z,13.23
2017-06-18T06:00:51.795Z,13.19
2017-06-18T06:01:52.420Z,13.27
2017-06-18T06:02:53.070Z,13.16
2017-06-18T06:03:53.687Z,13.16
2017-06-18T06:04:54.354Z,13.23
2017-06-18T06:05:54.976Z,13.37
2017-06-18T06:06:55.593Z,13.37
2017-06-18T06:07:56.209Z,13.37
2017-06-18T06:08:56.827Z,13.47
2017-06-18T06:09:57.499Z,13.47
2017-06-18T06:10:58.153Z,13.49
2017-06-18T06:11:58.773Z,13.44
2017-06-18T06:12:59.388Z,13.49
2017-06-18T06:14:00.005Z,13.49
2017-06-18T06:15:00.698Z,13.57
2017-06-18T06:16:01.302Z,13.53
2017-06-18T06:17:01.918Z,13.56
2017-06-18T06:18:02.534Z,13.60
2017-06-18T06:19:03.153Z,13.62
2017-06-18T06:20:03.856Z,13.63
2017-06-18T06:21:04.475Z,13.65
2017-06-18T06:22:05.093Z,13.60
2017-06-18T06:23:05.710Z,13.59
2017-06-18T06:24:06.329Z,13.57
2017-06-18T06:25:06.996Z,13.60
2017-06-18T06:26:07.616Z,13.60
2017-06-18T06:27:08.234Z,13.72
2017-06-18T06:28:08.851Z,13.71
2017-06-18T06:29:09.469Z,13.65
2017-06-18T06:30:10.138Z,13.79
2017-06-18T06:31:10.758Z,13.79
2017-06-18T06:32:11.376Z,13.77
2017-06-18T06:33:11.993Z,13.78
2017-06-18T06:34:12.613Z,13.77
2017-06-18T06:35:13.331Z,13.77
2017-06-18T06:36:13.956Z,13.77
2017-06-18T06:37:14.571Z,13.81
2017-06-18T06:38:15.222Z,13.89
2017-06-18T06:39:15.844Z,13.81
2017-06-18T06:40:16.516Z,13.85
2017-06-18T06:41:17.130Z,13.95
2017-06-18T06:42:17.749Z,13.85
2017-06-18T06:43:18.368Z,13.92
2017-06-18T06:44:18.987Z,13.93
2017-06-18T06:45:19.685Z,13.99
2017-06-18T06:46:20.291Z,14.03
2017-06-18T06:47:20.936Z,13.97
2017-06-18T06:48:21.564Z,14.04
2017-06-18T06:49:22.198Z,14.11
2017-06-18T06:50:23.101Z,14.10
2017-06-18T06:51:23.753Z,14.10
2017-06-18T06:52:24.354Z,14.25
2017-06-18T06:53:24.972Z,14.30
2017-06-18T06:54:25.616Z,14.17
2017-06-18T06:55:26.271Z,14.20
2017-06-18T06:56:26.891Z,14.18
2017-06-18T06:57:27.511Z,14.28
2017-06-18T06:58:28.129Z,14.33
2017-06-18T06:59:28.747Z,14.37
2017-06-18T07:00:29.415Z,14.33
2017-06-18T07:01:30.035Z,14.37
2017-06-18T07:02:30.655Z,14.36
2017-06-18T07:03:31.273Z,14.48
2017-06-18T07:04:31.890Z,14.48
2017-06-18T07:05:32.560Z,14.50
2017-06-18T07:06:33.181Z,14.47
2017-06-18T07:07:33.802Z,14.53
2017-06-18T07:08:34.417Z,14.60
2017-06-18T07:09:35.075Z,14.62
2017-06-18T07:10:35.746Z,14.62
2017-06-18T07:11:36.366Z,14.77
2017-06-18T07:12:36.991Z,14.79
2017-06-18T07:13:37.611Z,14.77
2017-06-18T07:14:38.259Z,14.81
2017-06-18T07:15:38.913Z,14.82
2017-06-18T07:16:39.532Z,14.85
2017-06-18T07:17:40.152Z,14.81
2017-06-18T07:18:40.802Z,14.92
2017-06-18T07:19:41.403Z,15.02
2017-06-18T07:20:42.074Z,15.04
2017-06-18T07:21:42.692Z,15.03
2017-06-18T07:22:43.310Z,15.03
2017-06-18T07:23:43.928Z,15.06
2017-06-18T07:24:44.574Z,14.97
2017-06-18T07:25:45.229Z,15.10
2017-06-18T07:26:45.848Z,15.11
2017-06-18T07:27:46.466Z,15.14
2017-06-18T07:28:47.086Z,15.09
2017-06-18T07:29:47.705Z,15.18
2017-06-18T07:30:48.374Z,15.21
2017-06-18T07:31:48.990Z,15.22
2017-06-18T07:32:49.650Z,15.18
2017-06-18T07:33:50.311Z,15.31
2017-06-18T07:34:50.927Z,15.35
2017-06-18T07:35:51.597Z,15.36
2017-06-18T07:36:52.223Z,15.36
2017-06-18T07:37:52.847Z,15.37
2017-06-18T07:38:53.470Z,15.36
2017-06-18T07:39:54.092Z,15.31
2017-06-18T07:40:54.762Z,15.39
2017-06-18T07:41:55.383Z,15.51
2017-06-18T07:42:56.037Z,15.57
2017-06-18T07:43:56.656Z,15.49
2017-06-18T07:44:57.285Z,15.62
2017-06-18T07:45:58.197Z,15.70
2017-06-18T07:46:58.815Z,15.70
2017-06-18T07:47:59.442Z,15.73
2017-06-18T07:49:00.097Z,15.75
2017-06-18T07:50:00.718Z,15.82
2017-06-18T07:51:01.389Z,15.82
2017-06-18T07:52:02.014Z,15.76
2017-06-18T07:53:02.637Z,15.82
2017-06-18T07:54:03.255Z,15.83
2017-06-18T07:55:03.874Z,15.82
2017-06-18T07:56:04.545Z,15.92
2017-06-18T07:57:05.203Z,15.90
2017-06-18T07:58:05.821Z,15.82
2017-06-18T07:59:06.469Z,16.00
2017-06-18T08:00:07.074Z,15.98
2017-06-18T08:01:07.745Z,15.95
2017-06-18T08:02:08.365Z,15.97
2017-06-18T08:03:08.987Z,15.90
2017-06-18T08:04:09.605Z,15.86
2017-06-18T08:05:10.225Z,15.84
2017-06-18T08:06:10.895Z,15.82
2017-06-18T08:07:11.582Z,15.84
2017-06-18T08:08:12.212Z,15.90
2017-06-18T08:09:12.846Z,15.92
2017-06-18T08:10:13.451Z,15.92
2017-06-18T08:11:14.151Z,15.97
2017-06-18T08:12:14.757Z,16.04
2017-06-18T08:13:15.380Z,16.02
2017-06-18T08:14:16.025Z,16.02
2017-06-18T08:15:16.633Z,15.98
2017-06-18T08:16:17.303Z,16.05
2017-06-18T08:17:17.923Z,16.09
2017-06-18T08:18:18.542Z,16.04
2017-06-18T08:19:19.171Z,16.26
2017-06-18T08:20:19.788Z,16.12
2017-06-18T08:21:20.458Z,16.13
2017-06-18T08:22:21.078Z,16.20
2017-06-18T08:23:21.697Z,16.17
2017-06-18T08:24:22.319Z,16.32
2017-06-18T08:25:22.939Z,16.39
2017-06-18T08:26:23.616Z,16.49
2017-06-18T08:27:24.235Z,16.50
2017-06-18T08:28:24.858Z,16.58
2017-06-18T08:29:25.479Z,16.61
2017-06-18T08:30:26.098Z,16.68
2017-06-18T08:31:26.770Z,16.64
2017-06-18T08:32:27.394Z,16.61
2017-06-18T08:33:28.019Z,16.64
2017-06-18T08:34:28.669Z,16.65
2017-06-18T08:35:29.289Z,16.69
2017-06-18T08:36:29.985Z,16.72
2017-06-18T08:37:30.622Z,16.69
2017-06-18T08:38:31.262Z,16.74
2017-06-18T08:39:31.917Z,16.66
2017-06-18T08:40:32.541Z,16.72
2017-06-18T08:41:33.212Z,16.76
2017-06-18T08:42:33.862Z,16.86
2017-06-18T08:43:34.472Z,16.89
2017-06-18T08:44:35.095Z,16.96
2017-06-18T08:45:35.712Z,17.06
2017-06-18T08:46:36.383Z,17.11
2017-06-18T08:47:37.005Z,17.20
2017-06-18T08:48:37.684Z,17.36
2017-06-18T08:49:38.294Z,17.42
2017-06-18T08:50:38.944Z,17.38
2017-06-18T08:51:39.626Z,17.38
2017-06-18T08:52:40.234Z,17.39
2017-06-18T08:53:40.887Z,17.45
2017-06-18T08:54:41.536Z,17.46
2017-06-18T08:55:42.145Z,17.54
2017-06-18T08:56:42.815Z,17.56
2017-06-18T08:57:43.435Z,17.60
2017-06-18T08:58:44.056Z,17.71
2017-06-18T08:59:44.679Z,17.68
2017-06-18T09:00:45.302Z,17.78
2017-06-18T09:01:45.973Z,17.83
2017-06-18T09:02:46.603Z,17.85
2017-06-18T09:03:47.219Z,17.89
2017-06-18T09:04:47.846Z,17.90
2017-06-18T09:05:48.464Z,17.92
2017-06-18T09:06:49.134Z,17.79
2017-06-18T09:07:49.758Z,17.72
2017-06-18T09:08:50.404Z,17.70
2017-06-18T09:09:51.020Z,17.72
2017-06-18T09:10:51.638Z,17.65
2017-06-18T09:11:52.312Z,17.64
2017-06-18T09:12:52.931Z,17.56
2017-06-18T09:13:53.583Z,17.57
2017-06-18T09:14:54.236Z,17.57
2017-06-18T09:15:54.859Z,17.72
2017-06-18T09:16:55.531Z,17.70
2017-06-18T09:17:56.178Z,17.72
2017-06-18T09:18:56.788Z,17.86
2017-06-18T09:19:57.408Z,18.00
2017-06-18T09:20:58.063Z,18.01
2017-06-18T09:21:58.736Z,17.98
2017-06-18T09:22:59.358Z,18.01
2017-06-18T09:23:59.980Z,18.00
2017-06-18T09:25:00.602Z,18.05
2017-06-18T09:26:01.223Z,18.16
2017-06-18T09:27:01.898Z,18.05
2017-06-18T09:28:02.521Z,18.23
2017-06-18T09:29:03.144Z,18.38
2017-06-18T09:30:03.767Z,18.38
2017-06-18T09:31:04.386Z,18.49
2017-06-18T09:32:05.061Z,18.55
2017-06-18T09:33:05.721Z,18.62
2017-06-18T09:34:06.346Z,18.70
2017-06-18T09:35:06.965Z,18.77
2017-06-18T09:36:07.590Z,18.81
2017-06-18T09:37:08.261Z,18.80
2017-06-18T09:38:08.883Z,18.83
2017-06-18T09:39:09.505Z,18.83
2017-06-18T09:40:10.155Z,18.83
2017-06-18T09:41:10.762Z,18.83
2017-06-18T09:42:11.433Z,18.83
2017-06-18T09:43:12.058Z,18.73
2017-06-18T09:44:12.685Z,18.74
2017-06-18T09:45:13.307Z,18.83
2017-06-18T09:46:13.963Z,18.96
2017-06-18T09:47:14.664Z,18.90
2017-06-18T09:48:15.272Z,18.95
2017-06-18T09:49:15.896Z,19.02
2017-06-18T09:50:16.544Z,18.93
2017-06-18T09:51:17.174Z,19.02
2017-06-18T09:52:17.827Z,18.86
2017-06-18T09:53:18.449Z,18.90
2017-06-18T09:54:19.070Z,18.98
2017-06-18T09:55:19.724Z,19.04
2017-06-18T09:56:20.374Z,19.18
2017-06-18T09:57:21.021Z,19.21
2017-06-18T09:58:21.679Z,19.27
2017-06-18T09:59:22.303Z,19.31
2017-06-18T10:00:22.926Z,19.31
2017-06-18T10:01:23.548Z,19.36
2017-06-18T10:02:24.221Z,19.41
2017-06-18T10:03:24.851Z,19.59
2017-06-18T10:04:25.475Z,19.55
2017-06-18T10:05:26.106Z,19.70
2017-06-18T10:06:26.760Z,19.86
2017-06-18T10:07:27.439Z,19.85
2017-06-18T10:08:28.085Z,19.92
2017-06-18T10:09:28.723Z,19.88
2017-06-18T10:10:29.331Z,19.84
2017-06-18T10:11:29.954Z,20.03
2017-06-18T10:12:30.628Z,20.21
2017-06-18T10:13:31.251Z,20.31
2017-06-18T10:14:31.898Z,20.24
2017-06-18T10:15:32.556Z,20.32
2017-06-18T10:16:33.180Z,20.28
2017-06-18T10:17:33.853Z,20.41
2017-06-18T10:18:34.479Z,20.44
2017-06-18T10:19:35.125Z,20.37
2017-06-18T10:20:35.735Z,20.41
2017-06-18T10:21:36.359Z,20.58
2017-06-18T10:22:37.069Z,20.58
2017-06-18T10:23:37.722Z,20.60
2017-06-18T10:24:38.345Z,20.62
2017-06-18T10:25:38.967Z,20.62
2017-06-18T10:26:39.630Z,20.66
2017-06-18T10:27:40.301Z,20.77
2017-06-18T10:28:40.961Z,20.85
2017-06-18T10:29:41.583Z,20.87
2017-06-18T10:30:42.208Z,20.74
2017-06-18T10:31:42.830Z,20.77
2017-06-18T10:32:43.508Z,20.72
2017-06-18T10:33:44.128Z,20.81
2017-06-18T10:34:44.752Z,20.82
2017-06-18T10:35:45.408Z,20.85
2017-06-18T10:36:46.035Z,21.07
2017-06-18T10:37:46.705Z,21.02
2017-06-18T10:38:47.330Z,21.14
2017-06-18T10:39:47.983Z,21.18
2017-06-18T10:40:48.593Z,21.29
2017-06-18T10:41:49.218Z,21.40
2017-06-18T10:42:49.893Z,21.48
2017-06-18T10:43:50.518Z,21.36
2017-06-18T10:44:51.143Z,21.27
2017-06-18T10:45:51.792Z,21.15
2017-06-18T10:46:52.405Z,21.32
2017-06-18T10:47:53.081Z,21.12
2017-06-18T10:48:53.732Z,21.02
2017-06-18T10:49:54.345Z,21.15
2017-06-18T10:50:54.971Z,20.96
2017-06-18T10:51:55.597Z,21.06
2017-06-18T10:52:56.275Z,20.97
2017-06-18T10:53:56.900Z,21.17
2017-06-18T10:54:57.555Z,21.22
2017-06-18T10:55:58.164Z,21.25
2017-06-18T10:56:58.815Z,21.25
2017-06-18T10:57:59.475Z,21.42
2017-06-18T10:59:00.102Z,21.50
2017-06-18T11:00:00.727Z,21.62
2017-06-18T11:01:01.352Z,21.61
2017-06-18T11:02:02.003Z,21.70
2017-06-18T11:03:02.662Z,21.79
2017-06-18T11:04:03.287Z,21.79
2017-06-18T11:05:03.946Z,21.95
2017-06-18T11:06:04.571Z,21.96
2017-06-18T11:07:05.196Z,21.96
2017-06-18T11:08:05.871Z,21.92
2017-06-18T11:09:06.495Z,22.13
2017-06-18T11:10:07.155Z,22.22
2017-06-18T11:11:07.779Z,22.18
2017-06-18T11:12:08.439Z,22.23
2017-06-18T11:13:09.067Z,22.23
2017-06-18T11:14:09.690Z,22.15
2017-06-18T11:15:10.315Z,22.22
2017-06-18T11:16:10.979Z,22.22
2017-06-18T11:17:11.601Z,22.44
2017-06-18T11:18:12.302Z,22.62
2017-06-18T11:19:12.913Z,22.65
2017-06-18T11:20:13.539Z,22.68
2017-06-18T11:21:14.200Z,22.72
2017-06-18T11:22:14.831Z,22.75
2017-06-18T11:23:15.565Z,22.69
2017-06-18T11:24:16.175Z,22.75
2017-06-18T11:25:16.802Z,22.76
2017-06-18T11:26:17.427Z,22.78
2017-06-18T11:27:18.051Z,22.75
2017-06-18T11:28:18.726Z,22.84
2017-06-18T11:29:19.379Z,22.88
2017-06-18T11:30:19.991Z,23.02
2017-06-18T11:31:20.615Z,23.15
2017-06-18T11:32:21.241Z,23.23
2017-06-18T11:33:21.917Z,23.24
2017-06-18T11:34:22.542Z,23.21
2017-06-18T11:35:23.167Z,23.25
2017-06-18T11:36:23.795Z,23.27
2017-06-18T11:37:24.420Z,23.32
2017-06-18T11:38:25.101Z,23.39
2017-06-18T11:39:25.723Z,23.31
2017-06-18T11:40:26.351Z,23.41
2017-06-18T11:41:26.977Z,23.25
2017-06-18T11:42:27.603Z,23.20
2017-06-18T11:43:28.479Z,23.24
2017-06-18T11:44:29.112Z,23.23
2017-06-18T11:45:29.738Z,23.25
2017-06-18T11:46:30.372Z,23.25
2017-06-18T11:47:30.998Z,23.31
2017-06-18T11:48:31.673Z,23.10
2017-06-18T11:49:32.299Z,22.94
2017-06-18T11:50:32.927Z,22.83
2017-06-18T11:51:33.553Z,22.93
2017-06-18T11:52:34.204Z,22.91
2017-06-18T11:53:34.875Z,22.90
2017-06-18T11:54:35.504Z,22.91
2017-06-18T11:55:36.199Z,22.93
2017-06-18T11:56:36.808Z,22.91
2017-06-18T11:57:37.437Z,22.85
2017-06-18T11:58:38.138Z,23.00
2017-06-18T11:59:38.754Z,22.99
2017-06-18T12:00:39.408Z,22.99
2017-06-18T12:01:40.019Z,23.03
2017-06-18T12:02:40.645Z,23.03
2017-06-18T12:03:41.347Z,23.09
2017-06-18T12:04:41.960Z,23.05
2017-06-18T12:05:42.589Z,23.08
2017-06-18T12:06:43.213Z,23.25
2017-06-18T12:07:43.840Z,23.28
2017-06-18T12:08:44.516Z,23.27
2017-06-18T12:09:45.143Z,23.27
2017-06-18T12:10:45.771Z,23.39
2017-06-18T12:11:46.399Z,23.41
2017-06-18T12:12:47.057Z,23.56
2017-06-18T12:13:48.009Z,23.65
2017-06-18T12:14:48.621Z,23.74
2017-06-18T12:15:49.281Z,23.83
2017-06-18T12:16:49.907Z,23.87
2017-06-18T12:17:50.560Z,23.91
2017-06-18T12:18:51.223Z,23.87
2017-06-18T12:19:51.849Z,23.81
2017-06-18T12:20:52.474Z,23.91
2017-06-18T12:21:53.106Z,23.93
2017-06-18T12:22:53.737Z,23.96
2017-06-18T12:23:54.412Z,23.84
2017-06-18T12:24:55.041Z,23.77
2017-06-18T12:25:55.668Z,23.77
2017-06-18T12:26:56.297Z,23.92
2017-06-18T12:27:56.962Z,23.88
2017-06-18T12:28:57.636Z,24.02
2017-06-18T12:29:58.262Z,24.01
2017-06-18T12:30:58.895Z,24.05
2017-06-18T12:31:59.524Z,24.18
2017-06-18T12:33:00.150Z,24.26
2017-06-18T12:34:00.826Z,24.21
2017-06-18T12:35:01.453Z,24.30
2017-06-18T12:36:02.079Z,24.50
2017-06-18T12:37:02.705Z,24.43
2017-06-18T12:38:03.334Z,24.47
2017-06-18T12:39:04.015Z,24.47
2017-06-18T12:40:04.645Z,24.51
2017-06-18T12:41:05.309Z,24.55
2017-06-18T12:42:05.997Z,24.48
2017-06-18T12:43:06.610Z,24.78
2017-06-18T12:44:07.288Z,24.84
2017-06-18T12:45:07.944Z,24.86
2017-06-18T12:46:08.582Z,24.78
2017-06-18T12:47:09.198Z,24.73
2017-06-18T12:48:09.824Z,24.55
2017-06-18T12:49:10.502Z,24.51
2017-06-18T12:50:11.131Z,24.51
2017-06-18T12:51:11.757Z,24.48
2017-06-18T12:52:12.386Z,24.54
2017-06-18T12:53:13.014Z,24.69
2017-06-18T12:54:13.725Z,24.78
2017-06-18T12:55:14.355Z,24.84
2017-06-18T12:56:14.982Z,24.85
2017-06-18T12:57:15.635Z,24.81
2017-06-18T12:58:16.294Z,24.91
2017-06-18T12:59:16.973Z,24.86
2017-06-18T13:00:17.604Z,24.89
2017-06-18T13:01:18.230Z,24.86